sensor_id;sensor_type;location;lat;lon;timestamp;pressure;altitude;pressure_sealevel;temperature;humidity
15193;BME280;7697;51.630;7.484;2022-12-18T00:02:59;102139.09;;;-7.26;92.18
15193;BME280;7697;51.630;7.484;2022-12-18T00:08:03;102117.06;;;-7.35;92.32
15193;BME280;7697;51.630;7.484;2022-12-18T00:13:05;102135.94;;;-7.34;92.71
15193;BME280;7697;51.630;7.484;2022-12-18T00:18:06;102141.84;;;-7.32;92.67
15193;BME280;7697;51.630;7.484;2022-12-18T00:23:09;102146.91;;;-7.29;92.61
15193;BME280;7697;51.630;7.484;2022-12-18T00:28:11;102149.63;;;-7.34;92.04
15193;BME280;7697;51.630;7.484;2022-12-18T00:33:13;102147.16;;;-7.37;91.95
15193;BME280;7697;51.630;7.484;2022-12-18T00:38:16;102141.34;;;-7.43;91.60
15193;BME280;7697;51.630;7.484;2022-12-18T00:43:18;102144.13;;;-7.51;91.60
15193;BME280;7697;51.630;7.484;2022-12-18T00:48:19;102149.41;;;-7.55;91.61
15193;BME280;7697;51.630;7.484;2022-12-18T00:53:22;102144.53;;;-7.65;91.53
15193;BME280;7697;51.630;7.484;2022-12-18T00:58:24;102136.88;;;-7.66;90.92
15193;BME280;7697;51.630;7.484;2022-12-18T01:03:26;102119.28;;;-7.80;90.54
15193;BME280;7697;51.630;7.484;2022-12-18T01:08:29;102125.19;;;-7.78;91.28
15193;BME280;7697;51.630;7.484;2022-12-18T01:13:30;102137.06;;;-7.72;91.69
15193;BME280;7697;51.630;7.484;2022-12-18T01:18:32;102136.94;;;-7.69;92.19
15193;BME280;7697;51.630;7.484;2022-12-18T01:23:35;102140.47;;;-7.72;91.36
15193;BME280;7697;51.630;7.484;2022-12-18T01:28:38;102145.59;;;-7.72;91.67
15193;BME280;7697;51.630;7.484;2022-12-18T01:33:40;102138.78;;;-7.73;91.70
15193;BME280;7697;51.630;7.484;2022-12-18T01:38:45;102120.50;;;-7.93;90.59
15193;BME280;7697;51.630;7.484;2022-12-18T01:43:50;102118.81;;;-7.94;91.26
15193;BME280;7697;51.630;7.484;2022-12-18T01:48:55;102111.97;;;-7.95;91.42
15193;BME280;7697;51.630;7.484;2022-12-18T01:53:59;102102.56;;;-7.95;91.78
15193;BME280;7697;51.630;7.484;2022-12-18T01:59:03;102124.84;;;-7.95;92.07
15193;BME280;7697;51.630;7.484;2022-12-18T02:04:20;102138.31;;;-7.87;91.71
15193;BME280;7697;51.630;7.484;2022-12-18T02:09:28;102119.25;;;-8.09;91.05
15193;BME280;7697;51.630;7.484;2022-12-18T02:14:37;102111.81;;;-8.20;91.09
15193;BME280;7697;51.630;7.484;2022-12-18T02:19:50;102114.19;;;-8.12;91.26
15193;BME280;7697;51.630;7.484;2022-12-18T02:25:01;102111.50;;;-8.08;91.50
15193;BME280;7697;51.630;7.484;2022-12-18T02:30:08;102101.19;;;-8.06;91.87
15193;BME280;7697;51.630;7.484;2022-12-18T02:35:14;102098.47;;;-8.02;91.95
15193;BME280;7697;51.630;7.484;2022-12-18T02:40:19;102099.13;;;-7.95;91.86
15193;BME280;7697;51.630;7.484;2022-12-18T02:45:23;102107.78;;;-7.98;92.22
15193;BME280;7697;51.630;7.484;2022-12-18T02:50:30;102103.38;;;-7.94;91.71
15193;BME280;7697;51.630;7.484;2022-12-18T02:55:44;102096.69;;;-7.98;92.00
15193;BME280;7697;51.630;7.484;2022-12-18T03:00:59;102083.03;;;-8.00;92.31
15193;BME280;7697;51.630;7.484;2022-12-18T03:06:06;102113.56;;;-7.89;92.19
15193;BME280;7697;51.630;7.484;2022-12-18T03:11:11;102098.50;;;-8.03;92.24
15193;BME280;7697;51.630;7.484;2022-12-18T03:16:20;102100.84;;;-7.96;92.02
15193;BME280;7697;51.630;7.484;2022-12-18T03:21:28;102105.34;;;-8.02;91.76
15193;BME280;7697;51.630;7.484;2022-12-18T03:26:31;102101.97;;;-8.04;91.38
15193;BME280;7697;51.630;7.484;2022-12-18T03:31:37;102100.72;;;-8.20;91.46
15193;BME280;7697;51.630;7.484;2022-12-18T03:36:41;102096.44;;;-8.21;91.23
15193;BME280;7697;51.630;7.484;2022-12-18T03:41:44;102082.09;;;-8.28;91.53
15193;BME280;7697;51.630;7.484;2022-12-18T03:46:56;102080.56;;;-8.32;91.10
15193;BME280;7697;51.630;7.484;2022-12-18T03:52:03;102083.84;;;-8.30;91.48
15193;BME280;7697;51.630;7.484;2022-12-18T03:57:09;102085.69;;;-8.32;90.90
15193;BME280;7697;51.630;7.484;2022-12-18T04:02:15;102094.13;;;-8.30;90.53
15193;BME280;7697;51.630;7.484;2022-12-18T04:07:18;102100.84;;;-8.25;90.98
15193;BME280;7697;51.630;7.484;2022-12-18T04:12:20;102078.94;;;-8.37;90.82
15193;BME280;7697;51.630;7.484;2022-12-18T04:17:23;102078.22;;;-8.42;90.92
15193;BME280;7697;51.630;7.484;2022-12-18T04:22:25;102066.31;;;-8.44;91.26
15193;BME280;7697;51.630;7.484;2022-12-18T04:27:26;102076.28;;;-8.33;91.73
15193;BME280;7697;51.630;7.484;2022-12-18T04:32:29;102078.72;;;-8.30;92.30
15193;BME280;7697;51.630;7.484;2022-12-18T04:37:31;102084.72;;;-8.30;91.78
15193;BME280;7697;51.630;7.484;2022-12-18T04:42:33;102086.44;;;-8.30;92.39
15193;BME280;7697;51.630;7.484;2022-12-18T04:47:36;102082.84;;;-8.23;92.50
15193;BME280;7697;51.630;7.484;2022-12-18T04:52:37;102080.34;;;-8.26;92.61
15193;BME280;7697;51.630;7.484;2022-12-18T04:57:39;102085.31;;;-8.20;92.71
15193;BME280;7697;51.630;7.484;2022-12-18T05:02:42;102068.44;;;-8.30;92.96
15193;BME280;7697;51.630;7.484;2022-12-18T05:07:44;102053.00;;;-8.29;92.97
15193;BME280;7697;51.630;7.484;2022-12-18T05:12:45;102067.41;;;-8.23;93.27
15193;BME280;7697;51.630;7.484;2022-12-18T05:18:03;102062.91;;;-8.15;93.31
15193;BME280;7697;51.630;7.484;2022-12-18T05:23:05;102051.88;;;-8.19;93.45
15193;BME280;7697;51.630;7.484;2022-12-18T05:28:06;102054.41;;;-8.17;93.24
15193;BME280;7697;51.630;7.484;2022-12-18T05:33:09;102051.88;;;-8.19;93.28
15193;BME280;7697;51.630;7.484;2022-12-18T05:38:11;102048.41;;;-8.18;93.42
15193;BME280;7697;51.630;7.484;2022-12-18T05:43:13;102041.53;;;-8.16;93.64
15193;BME280;7697;51.630;7.484;2022-12-18T05:48:17;102048.16;;;-8.09;93.93
15193;BME280;7697;51.630;7.484;2022-12-18T05:53:20;102058.47;;;-8.10;93.66
15193;BME280;7697;51.630;7.484;2022-12-18T05:58:21;102070.97;;;-7.98;94.01
15193;BME280;7697;51.630;7.484;2022-12-18T06:03:24;102065.69;;;-7.93;94.30
15193;BME280;7697;51.630;7.484;2022-12-18T06:08:26;102074.75;;;-7.80;93.74
15193;BME280;7697;51.630;7.484;2022-12-18T06:13:28;102077.09;;;-7.73;93.70
15193;BME280;7697;51.630;7.484;2022-12-18T06:18:31;102082.50;;;-7.82;93.27
15193;BME280;7697;51.630;7.484;2022-12-18T06:23:33;102103.84;;;-7.80;93.29
15193;BME280;7697;51.630;7.484;2022-12-18T06:28:35;102097.88;;;-7.80;93.46
15193;BME280;7697;51.630;7.484;2022-12-18T06:33:38;102100.44;;;-7.80;92.97
15193;BME280;7697;51.630;7.484;2022-12-18T06:38:41;102100.47;;;-7.82;93.02
15193;BME280;7697;51.630;7.484;2022-12-18T06:43:43;102107.38;;;-7.84;93.04
15193;BME280;7697;51.630;7.484;2022-12-18T06:48:48;102105.09;;;-7.93;92.59
15193;BME280;7697;51.630;7.484;2022-12-18T06:53:50;102088.19;;;-8.02;92.30
15193;BME280;7697;51.630;7.484;2022-12-18T06:58:52;102097.63;;;-8.02;92.52
15193;BME280;7697;51.630;7.484;2022-12-18T07:03:57;102090.03;;;-8.05;92.54
15193;BME280;7697;51.630;7.484;2022-12-18T07:08:59;102073.19;;;-8.15;92.55
15193;BME280;7697;51.630;7.484;2022-12-18T07:14:00;102084.78;;;-8.02;92.78
15193;BME280;7697;51.630;7.484;2022-12-18T07:19:03;102077.13;;;-8.04;92.71
15193;BME280;7697;51.630;7.484;2022-12-18T07:24:06;102080.19;;;-7.91;93.22
15193;BME280;7697;51.630;7.484;2022-12-18T07:29:08;102077.69;;;-7.94;93.25
15193;BME280;7697;51.630;7.484;2022-12-18T07:34:11;102071.63;;;-7.91;93.14
15193;BME280;7697;51.630;7.484;2022-12-18T07:39:13;102064.53;;;-7.83;94.01
15193;BME280;7697;51.630;7.484;2022-12-18T07:44:15;102069.28;;;-7.70;94.36
15193;BME280;7697;51.630;7.484;2022-12-18T07:49:18;102058.00;;;-7.66;94.41
15193;BME280;7697;51.630;7.484;2022-12-18T07:54:20;102071.19;;;-7.48;94.34
15193;BME280;7697;51.630;7.484;2022-12-18T07:59:21;102063.19;;;-7.39;94.70
15193;BME280;7697;51.630;7.484;2022-12-18T08:04:24;102067.91;;;-7.26;94.94
15193;BME280;7697;51.630;7.484;2022-12-18T08:09:26;102065.66;;;-7.08;95.34
15193;BME280;7697;51.630;7.484;2022-12-18T08:14:28;102057.31;;;-6.90;95.52
15193;BME280;7697;51.630;7.484;2022-12-18T08:19:31;102050.72;;;-6.72;95.88
15193;BME280;7697;51.630;7.484;2022-12-18T08:24:32;102061.06;;;-6.49;96.38
15193;BME280;7697;51.630;7.484;2022-12-18T08:29:34;102052.84;;;-6.35;96.62
15193;BME280;7697;51.630;7.484;2022-12-18T08:34:37;102056.38;;;-6.15;96.13
15193;BME280;7697;51.630;7.484;2022-12-18T08:39:39;102010.38;;;-6.02;96.01
15193;BME280;7697;51.630;7.484;2022-12-18T08:44:40;102008.84;;;-5.86;95.91
15193;BME280;7697;51.630;7.484;2022-12-18T08:49:43;101995.41;;;-5.72;96.72
15193;BME280;7697;51.630;7.484;2022-12-18T08:54:45;102019.16;;;-5.42;97.07
15193;BME280;7697;51.630;7.484;2022-12-18T08:59:47;102002.94;;;-5.24;96.83
15193;BME280;7697;51.630;7.484;2022-12-18T09:04:50;102014.72;;;-4.97;97.07
15193;BME280;7697;51.630;7.484;2022-12-18T09:09:51;102003.78;;;-4.83;97.58
15193;BME280;7697;51.630;7.484;2022-12-18T09:14:53;102001.84;;;-4.58;97.32
15193;BME280;7697;51.630;7.484;2022-12-18T09:19:56;102006.84;;;-4.16;97.50
15193;BME280;7697;51.630;7.484;2022-12-18T09:24:58;101984.34;;;-3.95;97.19
15193;BME280;7697;51.630;7.484;2022-12-18T09:29:59;101986.63;;;-3.70;96.72
15193;BME280;7697;51.630;7.484;2022-12-18T09:35:03;101997.78;;;-3.51;96.78
15193;BME280;7697;51.630;7.484;2022-12-18T09:40:06;101994.81;;;-3.43;96.75
15193;BME280;7697;51.630;7.484;2022-12-18T09:45:12;101977.53;;;-3.25;96.17
15193;BME280;7697;51.630;7.484;2022-12-18T09:50:23;101997.72;;;-2.97;95.97
15193;BME280;7697;51.630;7.484;2022-12-18T09:55:30;101980.41;;;-2.80;95.98
15193;BME280;7697;51.630;7.484;2022-12-18T10:00:33;101977.31;;;-2.53;95.93
15193;BME280;7697;51.630;7.484;2022-12-18T10:05:42;101990.13;;;-2.35;95.49
15193;BME280;7697;51.630;7.484;2022-12-18T10:10:49;101981.19;;;-2.13;95.06
15193;BME280;7697;51.630;7.484;2022-12-18T10:16:07;101972.81;;;-2.03;94.73
15193;BME280;7697;51.630;7.484;2022-12-18T10:21:16;101960.59;;;-1.85;94.23
15193;BME280;7697;51.630;7.484;2022-12-18T10:26:19;101960.84;;;-1.74;94.09
15193;BME280;7697;51.630;7.484;2022-12-18T10:31:23;101951.38;;;-1.75;93.56
15193;BME280;7697;51.630;7.484;2022-12-18T10:36:26;101940.47;;;-1.66;93.87
15193;BME280;7697;51.630;7.484;2022-12-18T10:41:28;101913.69;;;-1.66;93.69
15193;BME280;7697;51.630;7.484;2022-12-18T10:46:31;101896.09;;;-1.61;93.60
15193;BME280;7697;51.630;7.484;2022-12-18T10:51:36;101896.38;;;-1.52;93.23
15193;BME280;7697;51.630;7.484;2022-12-18T10:56:39;101879.78;;;-1.49;93.64
15193;BME280;7697;51.630;7.484;2022-12-18T11:01:49;101893.75;;;-1.36;93.35
15193;BME280;7697;51.630;7.484;2022-12-18T11:06:58;101889.00;;;-1.29;93.26
15193;BME280;7697;51.630;7.484;2022-12-18T11:12:03;101885.88;;;-1.20;93.08
15193;BME280;7697;51.630;7.484;2022-12-18T11:17:18;101869.91;;;-1.14;92.58
15193;BME280;7697;51.630;7.484;2022-12-18T11:22:24;101856.19;;;-1.02;92.48
15193;BME280;7697;51.630;7.484;2022-12-18T11:27:28;101863.25;;;-0.90;92.23
15193;BME280;7697;51.630;7.484;2022-12-18T11:32:34;101843.91;;;-0.86;91.91
15193;BME280;7697;51.630;7.484;2022-12-18T11:37:40;101850.41;;;-0.79;91.50
15193;BME280;7697;51.630;7.484;2022-12-18T11:42:48;101862.31;;;-0.74;92.16
15193;BME280;7697;51.630;7.484;2022-12-18T11:47:56;101847.31;;;-0.71;92.14
15193;BME280;7697;51.630;7.484;2022-12-18T11:53:00;101828.84;;;-0.66;91.98
15193;BME280;7697;51.630;7.484;2022-12-18T11:58:07;101810.25;;;-0.60;92.43
15193;BME280;7697;51.630;7.484;2022-12-18T12:03:39;101785.91;;;-0.59;91.85
15193;BME280;7697;51.630;7.484;2022-12-18T12:08:57;101793.31;;;-0.53;91.75
15193;BME280;7697;51.630;7.484;2022-12-18T12:14:22;101801.28;;;-0.42;91.75
15193;BME280;7697;51.630;7.484;2022-12-18T12:19:36;101795.81;;;-0.38;91.86
15193;BME280;7697;51.630;7.484;2022-12-18T12:24:50;101772.91;;;-0.32;91.88
15193;BME280;7697;51.630;7.484;2022-12-18T12:30:03;101772.41;;;-0.25;91.27
15193;BME280;7697;51.630;7.484;2022-12-18T12:35:15;101769.00;;;-0.13;91.27
15193;BME280;7697;51.630;7.484;2022-12-18T12:40:27;101761.63;;;-0.06;90.43
15193;BME280;7697;51.630;7.484;2022-12-18T12:45:34;101758.72;;;-0.02;90.63
15193;BME280;7697;51.630;7.484;2022-12-18T12:50:38;101749.75;;;0.03;90.60
15193;BME280;7697;51.630;7.484;2022-12-18T12:55:43;101733.41;;;0.00;90.64
15193;BME280;7697;51.630;7.484;2022-12-18T13:00:50;101746.56;;;0.12;90.52
15193;BME280;7697;51.630;7.484;2022-12-18T13:06:00;101729.59;;;0.06;90.66
15193;BME280;7697;51.630;7.484;2022-12-18T13:11:29;101731.16;;;0.09;90.81
15193;BME280;7697;51.630;7.484;2022-12-18T13:16:50;101733.34;;;0.15;91.38
15193;BME280;7697;51.630;7.484;2022-12-18T13:21:53;101725.44;;;0.16;90.68
15193;BME280;7697;51.630;7.484;2022-12-18T13:26:57;101722.38;;;0.10;91.04
15193;BME280;7697;51.630;7.484;2022-12-18T13:32:00;101713.53;;;0.12;90.95
15193;BME280;7697;51.630;7.484;2022-12-18T13:37:39;101707.09;;;0.18;90.67
15193;BME280;7697;51.630;7.484;2022-12-18T13:42:43;101720.41;;;0.13;91.39
15193;BME280;7697;51.630;7.484;2022-12-18T13:48:03;101729.78;;;0.16;91.98
15193;BME280;7697;51.630;7.484;2022-12-18T13:53:05;101726.97;;;0.19;92.14
15193;BME280;7697;51.630;7.484;2022-12-18T13:58:12;101731.25;;;0.20;92.05
15193;BME280;7697;51.630;7.484;2022-12-18T14:03:20;101727.69;;;0.21;92.38
15193;BME280;7697;51.630;7.484;2022-12-18T14:08:23;101718.31;;;0.18;91.87
15193;BME280;7697;51.630;7.484;2022-12-18T14:13:30;101714.16;;;0.16;92.69
15193;BME280;7697;51.630;7.484;2022-12-18T14:18:38;101695.22;;;0.14;92.71
15193;BME280;7697;51.630;7.484;2022-12-18T14:23:43;101690.00;;;0.14;92.61
15193;BME280;7697;51.630;7.484;2022-12-18T14:28:46;101690.00;;;0.14;92.90
15193;BME280;7697;51.630;7.484;2022-12-18T14:33:48;101668.53;;;0.10;92.44
15193;BME280;7697;51.630;7.484;2022-12-18T14:38:51;101657.09;;;0.13;92.53
15193;BME280;7697;51.630;7.484;2022-12-18T14:44:05;101652.50;;;0.16;93.10
15193;BME280;7697;51.630;7.484;2022-12-18T14:49:20;101638.75;;;0.14;93.38
15193;BME280;7697;51.630;7.484;2022-12-18T14:54:24;101622.72;;;0.08;93.59
15193;BME280;7697;51.630;7.484;2022-12-18T14:59:28;101608.97;;;0.06;93.91
15193;BME280;7697;51.630;7.484;2022-12-18T15:04:32;101607.72;;;0.11;93.64
15193;BME280;7697;51.630;7.484;2022-12-18T15:09:35;101603.13;;;0.15;93.54
15193;BME280;7697;51.630;7.484;2022-12-18T15:14:40;101612.38;;;0.19;94.10
15193;BME280;7697;51.630;7.484;2022-12-18T15:19:43;101606.25;;;0.20;93.59
15193;BME280;7697;51.630;7.484;2022-12-18T15:24:46;101609.56;;;0.22;94.26
15193;BME280;7697;51.630;7.484;2022-12-18T15:30:01;101595.00;;;0.19;94.64
15193;BME280;7697;51.630;7.484;2022-12-18T15:35:13;101582.59;;;0.23;93.82
15193;BME280;7697;51.630;7.484;2022-12-18T15:40:16;101581.13;;;0.19;94.51
15193;BME280;7697;51.630;7.484;2022-12-18T15:45:19;101578.31;;;0.22;94.66
15193;BME280;7697;51.630;7.484;2022-12-18T15:50:21;101574.06;;;0.21;94.12
15193;BME280;7697;51.630;7.484;2022-12-18T15:55:24;101575.63;;;0.23;93.68
15193;BME280;7697;51.630;7.484;2022-12-18T16:00:44;101568.41;;;0.27;94.24
15193;BME280;7697;51.630;7.484;2022-12-18T16:05:46;101568.41;;;0.27;93.76
15193;BME280;7697;51.630;7.484;2022-12-18T16:10:47;101567.69;;;0.25;94.40
15193;BME280;7697;51.630;7.484;2022-12-18T16:15:50;101565.00;;;0.26;94.20
15193;BME280;7697;51.630;7.484;2022-12-18T16:20:52;101556.13;;;0.29;94.07
15193;BME280;7697;51.630;7.484;2022-12-18T16:25:54;101544.38;;;0.23;94.55
15193;BME280;7697;51.630;7.484;2022-12-18T16:30:57;101562.06;;;0.31;93.75
15193;BME280;7697;51.630;7.484;2022-12-18T16:35:58;101546.44;;;0.31;94.17
15193;BME280;7697;51.630;7.484;2022-12-18T16:41:00;101556.94;;;0.29;94.51
15193;BME280;7697;51.630;7.484;2022-12-18T16:46:20;101565.28;;;0.34;94.06
15193;BME280;7697;51.630;7.484;2022-12-18T16:51:22;101563.72;;;0.32;94.00
15193;BME280;7697;51.630;7.484;2022-12-18T16:56:24;101568.72;;;0.35;94.11
15193;BME280;7697;51.630;7.484;2022-12-18T17:01:28;101566.59;;;0.40;92.86
15193;BME280;7697;51.630;7.484;2022-12-18T17:06:33;101570.13;;;0.52;91.91
15193;BME280;7697;51.630;7.484;2022-12-18T17:11:35;101556.09;;;0.65;90.62
15193;BME280;7697;51.630;7.484;2022-12-18T17:16:38;101558.97;;;0.73;89.56
15193;BME280;7697;51.630;7.484;2022-12-18T17:21:40;101547.47;;;1.00;87.36
15193;BME280;7697;51.630;7.484;2022-12-18T17:26:41;101545.50;;;1.26;87.28
15193;BME280;7697;51.630;7.484;2022-12-18T17:31:45;101520.66;;;1.44;87.58
15193;BME280;7697;51.630;7.484;2022-12-18T17:36:47;101522.34;;;1.67;85.72
15193;BME280;7697;51.630;7.484;2022-12-18T17:41:49;101514.97;;;1.72;86.35
15193;BME280;7697;51.630;7.484;2022-12-18T17:46:52;101504.06;;;1.67;86.19
15193;BME280;7697;51.630;7.484;2022-12-18T17:51:53;101510.47;;;1.63;86.70
15193;BME280;7697;51.630;7.484;2022-12-18T17:56:55;101516.78;;;1.61;87.15
15193;BME280;7697;51.630;7.484;2022-12-18T18:01:58;101530.03;;;1.58;87.68
15193;BME280;7697;51.630;7.484;2022-12-18T18:07:00;101537.66;;;1.61;87.45
15193;BME280;7697;51.630;7.484;2022-12-18T18:12:02;101524.22;;;1.54;87.70
15193;BME280;7697;51.630;7.484;2022-12-18T18:17:23;101519.59;;;1.58;87.40
15193;BME280;7697;51.630;7.484;2022-12-18T18:22:24;101517.22;;;1.66;87.79
15193;BME280;7697;51.630;7.484;2022-12-18T18:27:26;101511.41;;;1.73;87.24
15193;BME280;7697;51.630;7.484;2022-12-18T18:32:29;101513.78;;;1.76;86.30
15193;BME280;7697;51.630;7.484;2022-12-18T18:37:31;101523.03;;;1.80;87.06
15193;BME280;7697;51.630;7.484;2022-12-18T18:42:33;101523.97;;;1.91;86.11
15193;BME280;7697;51.630;7.484;2022-12-18T18:47:36;101524.09;;;1.89;86.35
15193;BME280;7697;51.630;7.484;2022-12-18T18:52:38;101536.22;;;1.90;85.18
15193;BME280;7697;51.630;7.484;2022-12-18T18:57:40;101535.16;;;1.93;84.64
15193;BME280;7697;51.630;7.484;2022-12-18T19:02:43;101540.38;;;1.93;85.08
15193;BME280;7697;51.630;7.484;2022-12-18T19:07:45;101541.44;;;1.90;84.70
15193;BME280;7697;51.630;7.484;2022-12-18T19:12:47;101539.19;;;1.85;85.08
15193;BME280;7697;51.630;7.484;2022-12-18T19:18:08;101545.00;;;1.89;84.87
15193;BME280;7697;51.630;7.484;2022-12-18T19:23:09;101543.31;;;1.88;84.51
15193;BME280;7697;51.630;7.484;2022-12-18T19:28:11;101545.00;;;1.89;85.22
15193;BME280;7697;51.630;7.484;2022-12-18T19:33:14;101535.88;;;1.83;84.77
15193;BME280;7697;51.630;7.484;2022-12-18T19:38:16;101544.03;;;1.90;84.41
15193;BME280;7697;51.630;7.484;2022-12-18T19:43:17;101544.31;;;1.87;84.86
15193;BME280;7697;51.630;7.484;2022-12-18T19:48:20;101521.88;;;1.84;85.24
15193;BME280;7697;51.630;7.484;2022-12-18T19:53:22;101508.47;;;1.78;84.75
15193;BME280;7697;51.630;7.484;2022-12-18T19:58:24;101513.09;;;1.85;85.11
15193;BME280;7697;51.630;7.484;2022-12-18T20:03:27;101499.31;;;1.83;84.79
15193;BME280;7697;51.630;7.484;2022-12-18T20:08:29;101516.41;;;1.87;83.90
15193;BME280;7697;51.630;7.484;2022-12-18T20:13:31;101522.31;;;1.89;84.58
15193;BME280;7697;51.630;7.484;2022-12-18T20:18:34;101518.75;;;1.91;83.63
15193;BME280;7697;51.630;7.484;2022-12-18T20:23:36;101518.88;;;1.89;83.35
15193;BME280;7697;51.630;7.484;2022-12-18T20:28:38;101518.03;;;1.88;82.83
15193;BME280;7697;51.630;7.484;2022-12-18T20:33:41;101516.16;;;1.91;81.79
15193;BME280;7697;51.630;7.484;2022-12-18T20:38:43;101504.41;;;1.85;82.80
15193;BME280;7697;51.630;7.484;2022-12-18T20:43:44;101510.09;;;1.90;82.02
15193;BME280;7697;51.630;7.484;2022-12-18T20:48:48;101519.03;;;1.87;81.89
15193;BME280;7697;51.630;7.484;2022-12-18T20:53:50;101513.91;;;1.86;81.25
15193;BME280;7697;51.630;7.484;2022-12-18T20:58:55;101528.03;;;1.95;81.15
15193;BME280;7697;51.630;7.484;2022-12-18T21:03:58;101521.97;;;1.94;81.90
15193;BME280;7697;51.630;7.484;2022-12-18T21:08:59;101506.53;;;1.91;81.51
15193;BME280;7697;51.630;7.484;2022-12-18T21:14:02;101506.03;;;1.97;81.56
15193;BME280;7697;51.630;7.484;2022-12-18T21:19:05;101518.16;;;1.98;81.60
15193;BME280;7697;51.630;7.484;2022-12-18T21:24:08;101515.31;;;2.01;81.83
15193;BME280;7697;51.630;7.484;2022-12-18T21:29:11;101508.53;;;1.99;82.82
15193;BME280;7697;51.630;7.484;2022-12-18T21:34:17;101517.59;;;2.06;84.19
15193;BME280;7697;51.630;7.484;2022-12-18T21:39:19;101516.59;;;2.07;84.46
15193;BME280;7697;51.630;7.484;2022-12-18T21:44:21;101520.03;;;2.07;85.41
15193;BME280;7697;51.630;7.484;2022-12-18T21:49:25;101493.72;;;1.99;85.35
15193;BME280;7697;51.630;7.484;2022-12-18T21:54:27;101499.88;;;1.98;87.10
15193;BME280;7697;51.630;7.484;2022-12-18T21:59:32;101489.69;;;1.95;88.04
15193;BME280;7697;51.630;7.484;2022-12-18T22:04:35;101500.34;;;2.03;88.33
15193;BME280;7697;51.630;7.484;2022-12-18T22:09:37;101486.13;;;1.96;88.17
15193;BME280;7697;51.630;7.484;2022-12-18T22:14:39;101481.47;;;2.00;89.84
15193;BME280;7697;51.630;7.484;2022-12-18T22:19:42;101489.91;;;2.03;89.21
15193;BME280;7697;51.630;7.484;2022-12-18T22:24:44;101482.06;;;2.03;90.62
15193;BME280;7697;51.630;7.484;2022-12-18T22:29:46;101469.38;;;1.99;90.77
15193;BME280;7697;51.630;7.484;2022-12-18T22:35:08;101473.88;;;2.08;90.69
15193;BME280;7697;51.630;7.484;2022-12-18T22:40:12;101445.63;;;2.02;91.36
15193;BME280;7697;51.630;7.484;2022-12-18T22:45:18;101453.91;;;2.07;90.86
15193;BME280;7697;51.630;7.484;2022-12-18T22:50:21;101447.63;;;2.09;91.01
15193;BME280;7697;51.630;7.484;2022-12-18T22:55:23;101459.34;;;2.15;90.99
15193;BME280;7697;51.630;7.484;2022-12-18T23:00:25;101445.00;;;2.09;90.94
15193;BME280;7697;51.630;7.484;2022-12-18T23:05:29;101432.53;;;2.13;91.85
15193;BME280;7697;51.630;7.484;2022-12-18T23:10:31;101436.66;;;2.15;91.80
15193;BME280;7697;51.630;7.484;2022-12-18T23:15:33;101428.72;;;2.17;92.14
15193;BME280;7697;51.630;7.484;2022-12-18T23:20:37;101425.97;;;2.18;93.07
15193;BME280;7697;51.630;7.484;2022-12-18T23:25:38;101409.47;;;2.18;93.28
15193;BME280;7697;51.630;7.484;2022-12-18T23:30:40;101401.28;;;2.22;93.84
15193;BME280;7697;51.630;7.484;2022-12-18T23:35:43;101397.34;;;2.28;93.63
15193;BME280;7697;51.630;7.484;2022-12-18T23:40:45;101376.53;;;2.26;94.76
15193;BME280;7697;51.630;7.484;2022-12-18T23:45:47;101383.91;;;2.33;94.40
15193;BME280;7697;51.630;7.484;2022-12-18T23:50:49;101378.22;;;2.28;95.35
15193;BME280;7697;51.630;7.484;2022-12-18T23:55:51;101369.50;;;2.38;95.36
